Time;durP1;ratioP1;P1;durP2;ratioP2;P2;SDS_P1;SDS_P2;PMS_P1;PMS_P2;Temp;Humidity;BMP_temperature;BMP_pressure;BME280_temperature;BME280_humidity;BME280_pressure;Samples;Min_cycle;Max_cycle;Signal;HPM_P1;HPM_P2
2023/06/03 00:00:28;;;;;;;4.40;1.80;;;;;;;21.46;50.84;102064.34;5009249;28;20121;-55
2023/06/03 00:02:54;;;;;;;2.45;1.45;;;;;;;21.44;51.12;102055.50;5007482;28;20100;-55
2023/06/03 00:05:21;;;;;;;3.78;1.55;;;;;;;21.44;51.17;102060.91;5007841;28;20037;-55
2023/06/03 00:07:46;;;;;;;4.07;1.38;;;;;;;21.44;50.85;102060.91;5008547;28;20076;-56
2023/06/03 00:10:12;;;;;;;3.90;1.73;;;;;;;21.44;51.09;102062.78;5006193;28;20058;-56
2023/06/03 00:12:38;;;;;;;6.22;1.98;;;;;;;21.44;50.91;102055.50;5009485;28;20079;-56
2023/06/03 00:15:04;;;;;;;2.90;1.67;;;;;;;21.43;51.03;102058.31;5007087;28;20472;-55
2023/06/03 00:17:30;;;;;;;3.45;1.25;;;;;;;21.43;50.71;102061.84;5007482;28;20120;-55
2023/06/03 00:19:56;;;;;;;4.00;2.00;;;;;;;21.42;50.84;102062.88;5006497;28;20636;-55
2023/06/03 00:22:21;;;;;;;3.85;1.70;;;;;;;21.42;50.90;102057.47;5009296;28;20395;-55
2023/06/03 00:24:48;;;;;;;1.95;1.20;;;;;;;21.42;50.67;102062.03;5007020;28;20038;-55
2023/06/03 00:27:14;;;;;;;1.80;1.20;;;;;;;21.41;50.80;102060.31;5010717;28;20025;-55
2023/06/03 00:29:39;;;;;;;3.15;1.17;;;;;;;21.41;50.59;102060.31;5001096;28;20465;-55
2023/06/03 00:32:05;;;;;;;4.70;1.40;;;;;;;21.40;50.60;102064.88;5008870;28;20113;-55
2023/06/03 00:34:30;;;;;;;5.03;1.75;;;;;;;21.40;50.83;102064.88;5006766;28;20041;-56
2023/06/03 00:36:56;;;;;;;2.97;1.50;;;;;;;21.40;50.98;102064.00;5005583;28;20502;-55
2023/06/03 00:39:21;;;;;;;3.20;1.67;;;;;;;21.39;50.87;102057.72;5005945;28;20168;-55
2023/06/03 00:41:47;;;;;;;3.30;1.30;;;;;;;21.39;50.62;102055.00;5004745;28;20042;-55
2023/06/03 00:44:12;;;;;;;1.48;1.35;;;;;;;21.38;50.55;102058.72;5009087;28;20057;-55
2023/06/03 00:46:38;;;;;;;3.35;1.65;;;;;;;21.38;50.45;102056.03;5005077;28;20077;-56
2023/06/03 00:49:03;;;;;;;3.03;1.60;;;;;;;21.38;50.51;102058.72;5005881;28;20113;-55
2023/06/03 00:51:33;;;;;;;3.10;1.50;;;;;;;21.37;50.23;102058.88;5006436;28;20165;-56
2023/06/03 00:53:59;;;;;;;3.53;1.55;;;;;;;21.37;50.39;102053.44;5007537;28;20100;-56
2023/06/03 00:56:26;;;;;;;2.00;1.58;;;;;;;21.37;50.21;102059.72;5006174;28;20090;-55
2023/06/03 00:58:51;;;;;;;2.92;1.60;;;;;;;21.37;50.13;102057.00;5011579;28;20030;-55
2023/06/03 01:01:19;;;;;;;3.67;1.85;;;;;;;21.36;50.28;102054.44;5010093;28;20048;-55
2023/06/03 01:03:45;;;;;;;2.28;1.58;;;;;;;21.35;50.41;102055.44;5010699;28;20049;-56
2023/06/03 01:06:20;;;;;;;5.43;1.60;;;;;;;21.34;50.62;102054.56;5012134;28;20042;-56
2023/06/03 01:08:55;;;;;;;2.40;1.75;;;;;;;21.35;50.29;102055.44;5009529;28;20042;-55
2023/06/03 01:11:47;;;;;;;2.25;1.55;;;;;;;21.37;50.77;102057.00;5017588;28;20033;-55
2023/06/03 01:14:26;;;;;;;2.35;1.60;;;;;;;21.36;50.04;102057.13;5007147;28;20029;-56
2023/06/03 01:16:53;;;;;;;1.63;1.52;;;;;;;21.35;50.14;102060.88;5009602;28;20037;-56
2023/06/03 01:19:38;;;;;;;2.38;2.10;;;;;;;21.36;50.44;102051.72;5010288;28;20084;-56
2023/06/03 01:22:07;;;;;;;3.22;1.50;;;;;;;21.33;50.50;102052.88;5010366;28;20037;-55
2023/06/03 01:24:34;;;;;;;4.18;1.50;;;;;;;21.33;50.38;102061.00;5009328;28;20037;-56
2023/06/03 01:27:00;;;;;;;3.13;1.98;;;;;;;21.33;50.26;102061.00;5017735;28;20107;-55
2023/06/03 01:29:26;;;;;;;2.35;1.40;;;;;;;21.33;50.01;102061.00;5010249;28;20516;-56
2023/06/03 01:31:54;;;;;;;2.33;1.38;;;;;;;21.32;50.42;102061.97;5008550;28;20058;-55
2023/06/03 01:34:20;;;;;;;1.85;1.50;;;;;;;21.31;50.00;102060.28;5008812;28;20030;-55
2023/06/03 01:36:45;;;;;;;2.38;1.63;;;;;;;21.32;50.11;102061.97;5009501;28;20065;-56
2023/06/03 01:39:11;;;;;;;2.08;1.60;;;;;;;21.30;49.85;102061.25;5010077;28;20364;-54
2023/06/03 01:41:37;;;;;;;2.78;1.73;;;;;;;21.31;50.33;102059.44;5006225;28;20058;-54
2023/06/03 01:44:03;;;;;;;4.25;1.60;;;;;;;21.30;49.87;102053.13;5009406;28;20034;-54
2023/06/03 01:46:29;;;;;;;3.45;1.52;;;;;;;21.29;49.88;102052.28;5009472;28;20041;-55
2023/06/03 01:48:55;;;;;;;1.50;1.40;;;;;;;21.30;49.91;102053.13;5009918;28;20129;-54
2023/06/03 01:51:24;;;;;;;1.65;1.30;;;;;;;21.29;50.37;102059.56;5008883;28;20112;-54
2023/06/03 01:53:50;;;;;;;2.00;1.40;;;;;;;21.29;50.05;102062.28;5008614;28;20030;-55
2023/06/03 01:56:15;;;;;;;2.13;1.70;;;;;;;21.28;49.77;102068.66;5008973;28;20100;-54
2023/06/03 01:58:41;;;;;;;3.22;1.63;;;;;;;21.27;49.76;102066.97;5010019;28;20033;-55
2023/06/03 02:01:06;;;;;;;4.57;1.75;;;;;;;21.27;50.29;102066.97;5010710;28;20034;-55
2023/06/03 02:03:32;;;;;;;1.88;1.67;;;;;;;21.26;50.11;102059.81;5011564;28;20040;-55
2023/06/03 02:05:57;;;;;;;1.90;1.33;;;;;;;21.27;49.49;102061.56;5010101;28;20109;-54
2023/06/03 02:08:22;;;;;;;2.13;1.40;;;;;;;21.26;50.02;102060.69;5009215;28;20029;-54
2023/06/03 02:10:48;;;;;;;1.88;1.50;;;;;;;21.26;49.71;102057.13;5007938;28;20084;-54
2023/06/03 02:13:13;;;;;;;2.42;1.40;;;;;;;21.25;50.14;102055.44;5008313;28;20510;-55
2023/06/03 02:15:40;;;;;;;2.63;1.75;;;;;;;21.25;50.04;102056.28;5009465;28;20033;-54
2023/06/03 02:18:06;;;;;;;2.58;1.52;;;;;;;21.24;49.84;102051.00;5009260;28;20096;-54
2023/06/03 02:20:32;;;;;;;3.63;1.80;;;;;;;21.24;49.61;102056.41;5008656;28;20034;-54
2023/06/03 02:23:01;;;;;;;1.75;1.23;;;;;;;21.23;49.59;102052.84;5014628;28;20376;-54
2023/06/03 02:25:27;;;;;;;2.10;1.27;;;;;;;21.22;49.72;102048.41;5012946;28;20026;-54
2023/06/03 02:27:54;;;;;;;2.22;1.50;;;;;;;21.23;49.68;102052.00;5015398;28;20080;-54
2023/06/03 02:30:20;;;;;;;1.75;1.65;;;;;;;21.22;49.95;102044.84;5008888;28;20044;-54
2023/06/03 02:32:45;;;;;;;1.33;1.17;;;;;;;21.20;49.60;102045.00;5009154;28;20049;-54
2023/06/03 02:35:11;;;;;;;1.83;1.40;;;;;;;21.22;49.66;102047.56;5009564;28;20480;-54
2023/06/03 02:37:36;;;;;;;2.25;1.55;;;;;;;21.22;50.05;102050.28;5010357;28;20029;-54
2023/06/03 02:40:02;;;;;;;2.55;1.33;;;;;;;21.22;49.74;102052.97;5008172;28;20064;-54
2023/06/03 02:42:27;;;;;;;2.13;1.67;;;;;;;21.21;49.55;102059.38;5008561;28;20124;-54
2023/06/03 02:44:53;;;;;;;2.17;1.80;;;;;;;21.20;49.46;102055.81;5007430;28;20072;-54
2023/06/03 02:47:18;;;;;;;2.30;1.48;;;;;;;21.20;49.72;102053.13;5007837;28;20064;-54
2023/06/03 02:49:44;;;;;;;2.75;1.70;;;;;;;21.20;49.79;102052.25;5008103;28;20467;-55
2023/06/03 02:52:09;;;;;;;2.58;1.50;;;;;;;21.19;49.48;102055.94;5008286;28;20025;-54
2023/06/03 02:54:35;;;;;;;1.80;1.67;;;;;;;21.19;49.85;102048.72;5007748;28;20088;-54
2023/06/03 02:57:00;;;;;;;2.33;1.48;;;;;;;21.18;49.60;102051.53;5009179;28;20054;-54
2023/06/03 02:59:26;;;;;;;3.42;1.60;;;;;;;21.18;49.85;102052.41;5007215;28;20514;-54
2023/06/03 03:01:51;;;;;;;1.67;1.45;;;;;;;21.19;49.66;102058.66;5011192;28;20030;-54
2023/06/03 03:04:17;;;;;;;1.73;1.55;;;;;;;21.18;49.75;102059.69;5007056;28;20045;-54
2023/06/03 03:06:43;;;;;;;1.63;1.52;;;;;;;21.18;49.83;102059.69;5007109;28;20037;-54
2023/06/03 03:09:09;;;;;;;1.98;1.75;;;;;;;21.17;49.69;102052.53;5007680;28;20087;-55
2023/06/03 03:11:35;;;;;;;3.13;1.60;;;;;;;21.16;49.67;102050.84;5008451;28;20033;-54
2023/06/03 03:14:01;;;;;;;1.38;1.27;;;;;;;21.16;49.59;102053.53;5006818;28;20041;-54
2023/06/03 03:16:28;;;;;;;1.52;1.35;;;;;;;21.14;49.33;102053.66;5007408;28;20034;-54
2023/06/03 03:18:53;;;;;;;3.13;1.70;;;;;;;21.15;49.32;102059.94;5001887;28;20026;-54
2023/06/03 03:21:19;;;;;;;1.77;1.30;;;;;;;21.15;49.58;102051.81;5013670;28;20385;-54
2023/06/03 03:23:45;;;;;;;2.60;1.45;;;;;;;21.14;49.35;102053.66;5007333;28;20038;-54
2023/06/03 03:26:13;;;;;;;1.90;1.42;;;;;;;21.14;49.62;102063.66;5008542;28;20066;-54
2023/06/03 03:28:39;;;;;;;1.40;1.30;;;;;;;21.13;49.54;102053.81;5008133;28;20445;-54
2023/06/03 03:31:04;;;;;;;1.48;1.17;;;;;;;21.13;49.09;102056.50;5008768;28;20038;-54
2023/06/03 03:33:31;;;;;;;1.70;1.42;;;;;;;21.13;49.52;102060.06;5008905;28;20464;-54
2023/06/03 03:35:58;;;;;;;2.17;1.40;;;;;;;21.13;49.22;102062.78;5008881;28;20033;-54
2023/06/03 03:38:23;;;;;;;1.92;1.50;;;;;;;21.12;49.43;102061.09;5007761;28;20041;-54
2023/06/03 03:40:49;;;;;;;2.55;1.40;;;;;;;21.13;49.23;102067.34;5006391;28;20404;-54
2023/06/03 03:43:16;;;;;;;1.48;1.38;;;;;;;21.12;49.53;102060.22;5006719;28;20042;-54
2023/06/03 03:45:42;;;;;;;1.55;1.40;;;;;;;21.11;49.31;102067.47;5007028;28;20025;-55
2023/06/03 03:48:16;;;;;;;1.77;1.33;;;;;;;21.12;49.06;102069.22;5007844;28;20045;-54
2023/06/03 03:50:52;;;;;;;1.50;1.40;;;;;;;21.12;48.99;102065.66;5007678;28;20424;-55
2023/06/03 03:53:21;;;;;;;2.20;1.58;;;;;;;21.10;48.92;102068.50;5008370;28;20061;-54
2023/06/03 03:55:49;;;;;;;1.23;1.10;;;;;;;21.11;49.07;102077.47;5004904;28;20468;-55
2023/06/03 03:58:36;;;;;;;2.15;1.48;;;;;;;21.13;49.41;102070.06;5006810;28;20030;-55
2023/06/03 04:01:28;;;;;;;1.58;1.20;;;;;;;21.11;49.15;102070.19;5007012;28;20383;-55
2023/06/03 04:03:56;;;;;;;1.77;1.40;;;;;;;21.10;49.36;102073.91;5006859;28;20064;-55
2023/06/03 04:06:35;;;;;;;1.50;1.40;;;;;;;21.11;48.97;102074.75;5007179;28;20042;-54
2023/06/03 04:09:01;;;;;;;2.75;1.15;;;;;;;21.10;48.74;102073.91;5007047;28;20061;-54
2023/06/03 04:11:35;;;;;;;2.72;1.33;;;;;;;21.11;49.23;102074.75;5007010;28;20068;-54
2023/06/03 04:14:03;;;;;;;1.30;1.02;;;;;;;21.09;49.24;102080.31;5007057;28;20041;-55
2023/06/03 04:16:44;;;;;;;2.30;1.80;;;;;;;21.09;49.24;102069.47;5006987;28;20030;-54
2023/06/03 04:19:17;;;;;;;2.00;1.35;;;;;;;21.08;48.96;102074.03;5006611;28;20041;-54
2023/06/03 04:21:43;;;;;;;1.50;1.40;;;;;;;21.08;48.83;102076.75;5009879;28;20034;-54
2023/06/03 04:24:09;;;;;;;2.55;1.38;;;;;;;21.07;48.79;102075.00;5014891;28;20079;-54
2023/06/03 04:26:35;;;;;;;1.58;1.45;;;;;;;21.07;49.01;102079.59;5006738;28;20132;-54
2023/06/03 04:29:01;;;;;;;1.38;1.20;;;;;;;21.06;48.96;102081.44;5006456;28;20038;-54
2023/06/03 04:31:27;;;;;;;1.25;1.10;;;;;;;21.06;48.74;102078.72;5014212;28;20033;-54
2023/06/03 04:33:52;;;;;;;2.20;1.50;;;;;;;21.06;48.70;102078.72;5011749;28;20031;-54
2023/06/03 04:36:17;;;;;;;2.58;1.45;;;;;;;21.06;49.21;102080.59;5010699;28;20027;-54
2023/06/03 04:38:43;;;;;;;1.45;1.30;;;;;;;21.06;49.11;102086.84;5017416;28;20034;-54
2023/06/03 04:41:11;;;;;;;1.77;1.38;;;;;;;21.05;49.06;102082.41;5011324;28;20100;-54
2023/06/03 04:43:40;;;;;;;1.45;1.30;;;;;;;21.05;48.94;102082.41;5011668;28;20037;-54
2023/06/03 04:46:09;;;;;;;1.50;1.23;;;;;;;21.05;48.94;102081.56;5009643;28;20036;-54
2023/06/03 04:48:35;;;;;;;1.70;1.25;;;;;;;21.04;48.84;102091.56;5012874;28;20057;-54
2023/06/03 04:51:01;;;;;;;1.38;1.23;;;;;;;21.04;48.67;102086.13;5014142;28;20056;-55
2023/06/03 04:53:28;;;;;;;1.52;1.40;;;;;;;21.03;49.05;102089.81;5009919;28;20037;-54
2023/06/03 04:55:53;;;;;;;1.75;1.20;;;;;;;21.03;48.77;102083.56;5010071;28;20504;-54
2023/06/03 04:58:19;;;;;;;1.75;1.27;;;;;;;21.03;49.02;102081.69;5010520;28;20064;-54
2023/06/03 05:00:48;;;;;;;1.23;1.13;;;;;;;21.03;48.95;102088.97;5013707;28;20037;-55
2023/06/03 05:03:16;;;;;;;1.40;1.25;;;;;;;21.03;49.15;102089.81;5009728;28;20116;-54
2023/06/03 05:05:42;;;;;;;1.65;1.48;;;;;;;21.03;49.20;102094.41;5009956;28;20037;-54
2023/06/03 05:08:09;;;;;;;2.45;1.00;;;;;;;21.02;48.95;102096.25;5010039;28;20064;-54
2023/06/03 05:10:34;;;;;;;2.10;1.48;;;;;;;21.02;49.09;102093.53;5012585;28;20042;-55
2023/06/03 05:13:00;;;;;;;2.25;1.20;;;;;;;21.02;49.15;102090.00;5009064;28;20444;-54
2023/06/03 05:15:25;;;;;;;2.20;1.35;;;;;;;21.03;49.11;102097.94;5009639;28;20030;-54
2023/06/03 05:17:52;;;;;;;1.48;1.10;;;;;;;21.02;48.84;102087.28;5009324;28;20045;-54
2023/06/03 05:20:17;;;;;;;2.88;1.20;;;;;;;21.02;49.13;102095.41;5010814;28;20034;-54
2023/06/03 05:22:42;;;;;;;1.40;1.15;;;;;;;21.02;49.23;102084.56;5012067;28;20037;-54
2023/06/03 05:25:08;;;;;;;1.10;1.00;;;;;;;21.01;49.15;102091.81;5012981;28;20498;-54
2023/06/03 05:27:34;;;;;;;1.27;1.00;;;;;;;21.01;48.80;102094.53;5013214;28;20485;-55
2023/06/03 05:29:59;;;;;;;1.70;1.20;;;;;;;21.01;48.75;102086.41;5010351;28;20041;-55
2023/06/03 05:32:25;;;;;;;1.35;1.20;;;;;;;21.01;48.91;102091.81;5009376;28;20034;-54
2023/06/03 05:34:50;;;;;;;1.13;1.02;;;;;;;21.02;48.99;102098.09;5009592;28;20059;-55
2023/06/03 05:37:15;;;;;;;1.58;1.30;;;;;;;21.01;49.02;102096.38;5009965;28;20032;-54
2023/06/03 05:39:41;;;;;;;1.40;1.30;;;;;;;21.01;49.14;102090.97;5010444;28;20369;-54
2023/06/03 05:42:06;;;;;;;1.40;1.30;;;;;;;21.00;49.02;102087.41;5008805;28;20128;-54
2023/06/03 05:44:32;;;;;;;2.05;1.05;;;;;;;21.00;49.23;102095.53;5017498;28;20082;-54
2023/06/03 05:46:57;;;;;;;1.38;1.15;;;;;;;21.01;49.05;102090.97;5012902;28;20080;-54
2023/06/03 05:49:23;;;;;;;1.85;1.30;;;;;;;21.01;49.15;102085.56;5011070;28;20041;-54
2023/06/03 05:51:48;;;;;;;1.20;1.10;;;;;;;21.00;48.91;102089.25;5010381;28;20026;-54
2023/06/03 05:54:13;;;;;;;1.20;1.10;;;;;;;21.00;49.34;102081.13;5009252;28;20388;-54
2023/06/03 05:56:39;;;;;;;1.42;1.13;;;;;;;21.00;49.03;102090.13;5009408;28;20044;-54
2023/06/03 05:59:05;;;;;;;1.48;1.30;;;;;;;20.99;49.05;102091.09;5010977;28;20072;-54
2023/06/03 06:01:32;;;;;;;2.08;1.10;;;;;;;20.99;49.03;102093.81;5008462;28;20060;-54
2023/06/03 06:03:58;;;;;;;1.05;1.05;;;;;;;20.99;49.30;102082.97;5009235;28;20081;-54
2023/06/03 06:06:23;;;;;;;1.38;1.02;;;;;;;21.00;49.25;102091.94;5041145;28;20030;-55
2023/06/03 06:08:48;;;;;;;1.55;1.23;;;;;;;21.00;48.97;102100.06;5010609;28;20100;-55
2023/06/03 06:11:14;;;;;;;1.13;1.02;;;;;;;20.99;49.40;102093.81;5009115;28;20031;-54
2023/06/03 06:13:39;;;;;;;1.20;1.00;;;;;;;21.00;49.42;102094.66;5009783;28;20121;-54
2023/06/03 06:16:05;;;;;;;0.88;0.82;;;;;;;21.00;49.04;102100.94;5008765;28;20105;-54
2023/06/03 06:18:31;;;;;;;1.33;1.13;;;;;;;20.99;49.06;102099.22;5009113;28;20548;-54
2023/06/03 06:20:57;;;;;;;1.30;1.13;;;;;;;20.99;49.55;102096.50;5009101;28;20034;-54
2023/06/03 06:23:22;;;;;;;1.27;1.27;;;;;;;20.99;48.94;102099.22;5011706;28;20084;-54
2023/06/03 06:25:49;;;;;;;1.10;1.00;;;;;;;20.99;48.98;102107.34;5010803;28;20058;-54
2023/06/03 06:28:19;;;;;;;1.00;0.90;;;;;;;20.99;49.52;102101.06;5008077;28;20056;-54
2023/06/03 06:30:45;;;;;;;1.25;1.02;;;;;;;20.99;49.42;102109.19;5009222;28;20035;-54
2023/06/03 06:33:15;;;;;;;0.90;0.90;;;;;;;20.98;49.43;102104.75;5009306;28;20038;-54
2023/06/03 06:35:41;;;;;;;1.00;1.00;;;;;;;20.98;49.46;102105.66;5008147;28;20030;-54
2023/06/03 06:38:07;;;;;;;1.00;0.90;;;;;;;20.98;49.40;102105.66;5008385;28;20115;-55
2023/06/03 06:40:36;;;;;;;1.67;1.20;;;;;;;20.98;49.23;102102.94;5003715;28;20137;-54
2023/06/03 06:43:02;;;;;;;1.20;0.88;;;;;;;20.98;49.48;102102.94;5012237;28;20467;-54
2023/06/03 06:45:33;;;;;;;1.30;1.20;;;;;;;20.98;49.22;102108.34;5010577;28;20034;-54
2023/06/03 06:48:06;;;;;;;1.05;1.05;;;;;;;20.99;49.52;102109.19;5012646;28;20101;-54
2023/06/03 06:50:47;;;;;;;0.98;0.82;;;;;;;21.01;49.52;102109.91;5008558;28;20033;-54
2023/06/03 06:53:18;;;;;;;;;;;;;;;21.11;49.48;102102.69;5011287;28;20034;-54
2023/06/03 06:55:53;;;;;;;1.67;1.27;;;;;;;21.02;49.34;102109.78;5007395;28;19913;-54
2023/06/03 06:58:19;;;;;;;1.20;1.10;;;;;;;21.00;49.10;102111.78;5007876;28;20506;-54
2023/06/03 07:00:47;;;;;;;1.27;1.15;;;;;;;20.99;49.48;102115.47;5010518;28;20034;-54
2023/06/03 07:03:14;;;;;;;2.15;1.20;;;;;;;20.99;49.17;102109.19;5007118;28;20034;-54
2023/06/03 07:05:39;;;;;;;1.73;1.08;;;;;;;20.99;49.15;102111.91;5008607;28;20038;-54
2023/06/03 07:08:05;;;;;;;1.23;1.00;;;;;;;20.98;49.48;102113.78;5008123;28;20049;-54
2023/06/03 07:10:31;;;;;;;0.88;0.88;;;;;;;20.98;49.68;102113.78;5007965;28;20117;-54
2023/06/03 07:12:57;;;;;;;0.82;0.82;;;;;;;20.98;49.63;102100.22;5007083;28;20113;-55
2023/06/03 07:15:23;;;;;;;1.25;1.02;;;;;;;20.98;49.19;102102.94;5006398;28;20037;-55
2023/06/03 07:17:50;;;;;;;0.98;0.98;;;;;;;20.98;49.54;102105.66;5008986;28;20563;-54
2023/06/03 07:20:20;;;;;;;1.00;0.90;;;;;;;20.98;49.23;102100.22;5007903;28;20033;-54
2023/06/03 07:22:46;;;;;;;0.82;0.82;;;;;;;20.98;49.74;102102.06;5008233;28;20038;-54
2023/06/03 07:25:30;;;;;;;1.35;0.93;;;;;;;21.01;49.66;102101.78;5010824;28;20029;-54
2023/06/03 07:27:56;;;;;;;0.98;0.90;;;;;;;20.99;49.22;102098.38;5009180;28;20037;-55
2023/06/03 07:30:21;;;;;;;0.88;0.88;;;;;;;20.98;49.31;102102.94;5007120;28;20095;-54
2023/06/03 07:32:46;;;;;;;1.08;1.00;;;;;;;21.00;49.28;102105.47;5014089;28;20474;-55
2023/06/03 07:35:18;;;;;;;1.20;1.10;;;;;;;20.99;49.40;102111.91;5007743;28;20041;-54
2023/06/03 07:37:43;;;;;;;1.02;1.00;;;;;;;20.99;49.26;102111.91;5008220;28;20029;-54
2023/06/03 07:40:15;;;;;;;1.20;1.10;;;;;;;20.99;49.40;102104.63;5008571;28;20384;-54
2023/06/03 07:42:48;;;;;;;1.10;1.00;;;;;;;20.99;49.54;102104.63;5007796;28;20120;-54
2023/06/03 07:45:14;;;;;;;1.15;1.05;;;;;;;21.00;49.16;102100.06;5007430;28;20114;-54
2023/06/03 07:47:43;;;;;;;0.98;0.95;;;;;;;20.98;49.43;102097.53;5007874;28;20093;-54
2023/06/03 07:50:23;;;;;;;1.02;0.93;;;;;;;21.00;49.29;102100.94;5005954;28;20034;-55
2023/06/03 07:53:00;;;;;;;1.00;0.90;;;;;;;21.00;49.75;102103.66;5007533;28;20099;-54
2023/06/03 07:55:25;;;;;;;1.27;1.02;;;;;;;21.00;49.93;102108.19;5007173;28;20037;-54
2023/06/03 07:57:51;;;;;;;0.93;0.93;;;;;;;21.00;49.86;102110.91;5007471;28;20080;-54
2023/06/03 08:00:17;;;;;;;2.42;1.10;;;;;;;20.98;49.25;102111.06;5003075;28;20034;-54
2023/06/03 08:02:44;;;;;;;0.88;0.88;;;;;;;20.99;49.62;102111.91;5008547;28;20435;-54
2023/06/03 08:05:10;;;;;;;1.00;0.90;;;;;;;20.98;49.40;102113.78;5007240;28;20037;-54
2023/06/03 08:07:36;;;;;;;1.15;0.90;;;;;;;20.99;49.88;102109.19;5006263;28;20389;-54
2023/06/03 08:10:03;;;;;;;1.67;1.10;;;;;;;21.00;49.47;102113.59;5006521;28;20428;-54
2023/06/03 08:12:33;;;;;;;1.15;1.02;;;;;;;21.00;49.49;102122.59;5006525;28;20045;-55
2023/06/03 08:15:00;;;;;;;1.20;1.02;;;;;;;21.00;49.49;102116.31;5001849;28;20034;-54
2023/06/03 08:17:44;;;;;;;1.13;0.98;;;;;;;21.02;49.91;102112.50;5002972;28;20385;-54
2023/06/03 08:20:10;;;;;;;1.15;0.90;;;;;;;20.99;49.42;102115.47;5006836;28;20061;-54
2023/06/03 08:22:44;;;;;;;1.30;1.20;;;;;;;21.01;49.61;102105.34;5010853;28;20040;-54
2023/06/03 08:25:11;;;;;;;1.10;0.88;;;;;;;21.01;49.68;102109.91;5003897;28;20113;-54
2023/06/03 08:27:37;;;;;;;1.23;1.08;;;;;;;21.00;49.92;102106.38;5006588;28;20088;-54
2023/06/03 08:30:07;;;;;;;1.02;0.95;;;;;;;21.00;49.99;102106.38;5009572;28;20065;-55
2023/06/03 08:32:38;;;;;;;1.05;0.93;;;;;;;21.01;49.47;102112.63;5007632;28;20021;-54
2023/06/03 08:35:04;;;;;;;0.90;0.90;;;;;;;21.01;49.57;102099.09;5007890;28;20036;-55
2023/06/03 08:37:31;;;;;;;1.10;1.00;;;;;;;21.00;49.59;102106.38;5009022;28;20026;-54
2023/06/03 08:39:57;;;;;;;0.90;0.90;;;;;;;21.01;49.52;102109.91;5006353;28;20033;-54
2023/06/03 08:42:27;;;;;;;0.93;0.93;;;;;;;21.01;49.99;102109.91;5014457;28;20058;-54
2023/06/03 08:45:25;;;;;;;0.82;0.82;;;;;;;21.02;49.57;102114.34;5005906;28;20503;-54
2023/06/03 08:48:06;;;;;;;1.27;1.10;;;;;;;21.04;49.58;102110.50;5004513;28;20038;-54
2023/06/03 08:50:32;;;;;;;0.90;0.90;;;;;;;21.02;49.53;102098.97;5006368;28;20030;-55
2023/06/03 08:53:00;;;;;;;0.90;0.90;;;;;;;21.02;49.90;102095.41;5007091;28;20030;-55
2023/06/03 08:55:26;;;;;;;1.25;1.00;;;;;;;21.02;49.38;102104.38;5001943;28;20038;-54
2023/06/03 08:58:10;;;;;;;0.90;0.90;;;;;;;21.04;49.70;102106.97;5009672;28;20037;-54
2023/06/03 09:00:36;;;;;;;0.85;0.75;;;;;;;21.02;49.57;102098.97;5008332;28;20037;-54
2023/06/03 09:03:04;;;;;;;1.73;0.90;;;;;;;21.02;49.88;102104.38;5006148;28;20353;-54
2023/06/03 09:05:32;;;;;;;1.20;1.10;;;;;;;21.02;49.46;102109.78;5006722;28;20021;-54
2023/06/03 09:07:58;;;;;;;2.42;1.08;;;;;;;21.03;49.54;102102.50;5006674;28;20033;-54
2023/06/03 09:10:26;;;;;;;1.15;0.85;;;;;;;21.01;49.57;102102.66;5006999;28;20029;-54
2023/06/03 09:12:55;;;;;;;0.82;0.82;;;;;;;21.02;49.71;102109.78;5006110;28;20026;-54
2023/06/03 09:15:22;;;;;;;0.80;0.80;;;;;;;21.02;49.78;102101.66;5006385;28;20491;-54
2023/06/03 09:17:47;;;;;;;1.00;0.90;;;;;;;21.04;49.99;102102.38;5009332;28;20502;-54
2023/06/03 09:20:13;;;;;;;1.10;1.00;;;;;;;21.03;49.82;102099.81;5009456;28;20065;-54
2023/06/03 09:22:41;;;;;;;1.10;0.95;;;;;;;21.03;49.84;102100.66;5013207;28;20120;-55
2023/06/03 09:25:07;;;;;;;0.90;0.90;;;;;;;21.03;49.52;102106.06;5012958;28;20041;-54
2023/06/03 09:27:33;;;;;;;0.95;0.80;;;;;;;21.04;49.81;102098.81;5017492;28;20107;-54
2023/06/03 09:30:01;;;;;;;2.05;0.85;;;;;;;21.03;49.78;102097.09;5005767;28;20072;-54
2023/06/03 09:32:26;;;;;;;0.85;0.80;;;;;;;21.03;49.48;102108.78;5009664;28;20027;-54
2023/06/03 09:34:53;;;;;;;2.20;0.88;;;;;;;21.04;49.63;102110.50;5013605;28;20030;-54
2023/06/03 09:37:19;;;;;;;0.85;0.82;;;;;;;21.04;49.58;102102.38;5010248;28;20376;-55
2023/06/03 09:39:45;;;;;;;1.20;1.10;;;;;;;21.05;49.93;102092.41;5009123;28;20117;-54
2023/06/03 09:42:11;;;;;;;2.47;1.10;;;;;;;21.05;49.93;102093.25;5009310;28;20444;-54
2023/06/03 09:44:43;;;;;;;0.85;0.85;;;;;;;21.04;49.62;102091.56;5009793;28;20112;-54
2023/06/03 09:47:10;;;;;;;1.10;1.00;;;;;;;21.05;49.82;102087.84;5009937;28;20487;-55
2023/06/03 09:49:36;;;;;;;1.00;1.00;;;;;;;21.05;49.83;102098.66;5009001;28;20132;-54
2023/06/03 09:52:06;;;;;;;0.80;0.80;;;;;;;21.06;49.42;102105.81;5010956;28;20508;-55
2023/06/03 09:54:32;;;;;;;1.10;1.00;;;;;;;21.05;49.34;102090.53;5007811;28;20045;-55
2023/06/03 09:57:10;;;;;;;1.58;1.10;;;;;;;21.07;49.54;102099.38;5009673;28;20113;-54
2023/06/03 09:59:36;;;;;;;1.50;1.00;;;;;;;21.06;49.92;102097.69;5009040;28;20058;-54
2023/06/03 10:02:01;;;;;;;1.13;1.02;;;;;;;21.06;49.55;102089.56;5022501;28;20065;-54
2023/06/03 10:04:41;;;;;;;2.30;1.00;;;;;;;21.09;49.41;102101.97;5010174;28;20073;-55
2023/06/03 10:07:09;;;;;;;1.02;0.80;;;;;;;21.06;49.45;102094.97;5009077;28;20029;-55
2023/06/03 10:09:35;;;;;;;1.05;0.95;;;;;;;21.08;49.55;102092.16;5008968;28;20044;-55
2023/06/03 10:12:00;;;;;;;0.85;0.85;;;;;;;21.07;49.46;102103.94;5009495;28;20042;-55
2023/06/03 10:14:26;;;;;;;1.30;1.02;;;;;;;21.08;49.66;102097.56;5008958;28;20033;-55
2023/06/03 10:17:21;;;;;;;0.77;0.77;;;;;;;21.12;49.85;102095.44;5009094;28;20061;-55
2023/06/03 10:19:47;;;;;;;2.88;1.05;;;;;;;21.10;49.35;102095.56;5001248;28;20584;-55
2023/06/03 10:22:18;;;;;;;1.15;0.82;;;;;;;21.08;49.44;102098.41;5005760;28;20041;-55
2023/06/03 10:24:46;;;;;;;1.00;1.00;;;;;;;21.09;49.88;102096.53;5009689;28;20501;-54
2023/06/03 10:27:14;;;;;;;1.10;1.10;;;;;;;21.08;49.83;102093.00;5010932;28;20033;-55
2023/06/03 10:29:40;;;;;;;0.80;0.80;;;;;;;21.08;49.76;102087.56;5011417;28;20064;-55
2023/06/03 10:32:07;;;;;;;0.77;0.77;;;;;;;21.09;49.91;102092.00;5016617;28;20039;-54
2023/06/03 10:34:47;;;;;;;1.67;0.93;;;;;;;21.11;49.42;102091.84;5008987;28;20089;-54
2023/06/03 10:37:14;;;;;;;1.10;1.00;;;;;;;21.11;49.47;102091.00;5010036;28;20038;-55
2023/06/03 10:39:42;;;;;;;1.13;0.93;;;;;;;21.10;49.56;102090.16;5008699;28;20346;-55
2023/06/03 10:42:11;;;;;;;0.70;0.70;;;;;;;21.10;49.67;102079.31;5008668;28;20044;-55
2023/06/03 10:44:37;;;;;;;1.05;0.80;;;;;;;21.11;49.43;102088.28;5008907;28;20041;-55
2023/06/03 10:47:11;;;;;;;1.02;0.93;;;;;;;21.12;49.40;102087.31;5007761;28;20073;-54
2023/06/03 10:50:00;;;;;;;0.75;0.75;;;;;;;21.15;49.67;102084.31;5005501;28;20037;-55
2023/06/03 10:52:47;;;;;;;2.72;1.10;;;;;;;21.13;49.67;102091.72;5036626;28;20057;-55
2023/06/03 10:55:51;;;;;;;1.08;1.00;;;;;;;21.18;49.36;102092.19;5007291;28;20037;-55
2023/06/03 10:58:23;;;;;;;1.33;1.23;;;;;;;21.15;49.40;102087.03;4968037;28;20046;-54
2023/06/03 11:01:08;;;;;;;0.60;0.60;;;;;;;21.17;49.71;102087.75;4970351;28;20126;-55
2023/06/03 11:03:59;;;;;;;1.92;1.00;;;;;;;21.17;49.52;102091.31;4992742;28;20046;-55
2023/06/03 11:06:25;;;;;;;1.05;0.95;;;;;;;21.15;49.46;102079.78;5007795;28;20140;-54
2023/06/03 11:09:12;;;;;;;1.40;1.00;;;;;;;21.18;49.37;102070.50;5007712;28;20153;-54
2023/06/03 11:11:41;;;;;;;1.20;0.80;;;;;;;21.16;49.62;102078.75;5006074;28;20046;-54
2023/06/03 11:14:11;;;;;;;1.20;1.02;;;;;;;21.16;49.67;102083.34;5007840;28;20034;-54
2023/06/03 11:16:58;;;;;;;0.95;0.90;;;;;;;21.19;49.57;102077.63;5008070;28;20480;-55
2023/06/03 11:19:33;;;;;;;0.88;0.73;;;;;;;21.18;49.61;102081.34;5011500;28;20042;-55
2023/06/03 11:22:08;;;;;;;1.05;0.82;;;;;;;21.17;49.34;102076.91;5004630;28;20066;-54
2023/06/03 11:24:39;;;;;;;0.80;0.80;;;;;;;21.18;49.27;102081.34;5010058;28;20038;-54
2023/06/03 11:29:48;;;;;;;0.75;0.70;;;;;;;21.20;49.54;102082.06;5008197;28;20046;-55
2023/06/03 11:32:17;;;;;;;0.80;0.80;;;;;;;21.19;49.70;102078.50;5006819;28;20472;-55